createdAt,value
2018-12-18T00:00:31.066Z,57.70
2018-12-18T00:03:01.876Z,57.80
2018-12-18T00:05:35.885Z,57.70
2018-12-18T00:08:05.832Z,57.70
2018-12-18T00:10:40.145Z,57.80
2018-12-18T00:13:09.008Z,57.70
2018-12-18T00:15:37.904Z,57.70
2018-12-18T00:18:06.808Z,57.70
2018-12-18T00:20:35.704Z,57.60
2018-12-18T00:23:04.552Z,57.80
2018-12-18T00:25:40.582Z,57.70
2018-12-18T00:28:09.473Z,57.60
2018-12-18T00:30:38.324Z,57.90
2018-12-18T00:33:07.180Z,57.70
2018-12-18T00:35:36.009Z,57.70
2018-12-18T00:38:04.871Z,57.70
2018-12-18T00:40:33.731Z,57.80
2018-12-18T00:43:02.594Z,57.80
2018-12-18T00:45:31.625Z,57.90
2018-12-18T00:48:00.471Z,57.80
2018-12-18T00:50:29.341Z,57.80
2018-12-18T00:52:58.179Z,57.80
2018-12-18T00:55:27.057Z,57.90
2018-12-18T00:57:55.908Z,57.90
2018-12-18T01:00:24.748Z,57.90
2018-12-18T01:02:53.604Z,57.90
2018-12-18T01:05:22.468Z,57.90
2018-12-18T01:07:53.495Z,57.90
2018-12-18T01:10:22.148Z,57.90
2018-12-18T01:12:51.071Z,57.80
2018-12-18T01:15:19.940Z,57.90
2018-12-18T01:17:48.803Z,57.80
2018-12-18T01:20:17.680Z,57.90
2018-12-18T01:22:46.539Z,57.80
2018-12-18T01:25:15.399Z,57.80
2018-12-18T01:27:44.321Z,57.90
2018-12-18T01:30:13.153Z,57.90
2018-12-18T01:32:42.029Z,57.90
2018-12-18T01:35:10.878Z,57.80
2018-12-18T01:37:39.712Z,57.90
2018-12-18T01:40:08.574Z,57.90
2018-12-18T01:42:37.417Z,57.90
2018-12-18T01:45:06.280Z,57.90
2018-12-18T01:47:35.148Z,57.90
2018-12-18T01:50:04.879Z,57.90
2018-12-18T01:52:33.780Z,57.70
2018-12-18T01:55:03.633Z,57.60
2018-12-18T01:57:32.502Z,57.60
2018-12-18T02:00:01.460Z,57.60
2018-12-18T02:02:30.355Z,57.30
2018-12-18T02:04:59.220Z,57.60
2018-12-18T02:07:28.041Z,57.70
2018-12-18T02:09:56.885Z,57.70
2018-12-18T02:12:25.720Z,57.80
2018-12-18T02:14:54.570Z,57.80
2018-12-18T02:17:23.424Z,57.90
2018-12-18T02:19:52.269Z,57.90
2018-12-18T02:22:21.116Z,57.90
2018-12-18T02:24:49.963Z,57.90
2018-12-18T02:27:18.867Z,58.00
2018-12-18T02:29:47.719Z,58.00
2018-12-18T02:32:16.571Z,57.90
2018-12-18T02:34:45.435Z,58.00
2018-12-18T02:37:16.252Z,58.70
2018-12-18T02:39:45.608Z,58.00
2018-12-18T02:42:14.463Z,58.00
2018-12-18T02:44:43.397Z,58.00
2018-12-18T02:47:12.236Z,58.00
2018-12-18T02:49:41.150Z,58.20
2018-12-18T02:52:09.988Z,58.10
2018-12-18T02:54:39.016Z,58.10
2018-12-18T02:57:07.852Z,58.10
2018-12-18T02:59:36.695Z,58.10
2018-12-18T03:02:05.531Z,58.10
2018-12-18T03:04:34.653Z,58.10
2018-12-18T03:07:03.587Z,58.10
2018-12-18T03:09:32.433Z,58.10
2018-12-18T03:12:01.286Z,58.10
2018-12-18T03:14:30.151Z,58.20
2018-12-18T03:16:59.495Z,58.20
2018-12-18T03:19:28.411Z,58.30
2018-12-18T03:21:57.264Z,58.20
2018-12-18T03:24:26.129Z,58.20
2018-12-18T03:26:54.968Z,58.20
2018-12-18T03:29:24.925Z,58.20
2018-12-18T03:31:58.014Z,58.30
2018-12-18T03:34:28.458Z,58.20
2018-12-18T03:36:58.661Z,58.20
2018-12-18T03:39:27.778Z,58.30
2018-12-18T03:41:56.649Z,58.20
2018-12-18T03:44:25.522Z,58.20
2018-12-18T03:46:54.371Z,58.20
2018-12-18T03:49:23.229Z,58.20
2018-12-18T03:51:52.133Z,58.10
2018-12-18T03:54:21.373Z,58.00
2018-12-18T03:56:50.193Z,57.80
2018-12-18T03:59:19.049Z,57.80
2018-12-18T04:01:47.923Z,57.70
2018-12-18T04:04:16.776Z,57.80
2018-12-18T04:06:45.620Z,57.90
2018-12-18T04:09:14.502Z,58.00
2018-12-18T04:11:48.715Z,58.10
2018-12-18T04:14:17.573Z,58.00
2018-12-18T04:16:46.413Z,58.00
2018-12-18T04:19:15.248Z,58.10
2018-12-18T04:21:44.118Z,58.10
2018-12-18T04:24:13.020Z,58.10
2018-12-18T04:26:41.884Z,58.20
2018-12-18T04:29:12.738Z,58.20
2018-12-18T04:31:41.635Z,58.20
2018-12-18T04:34:10.475Z,58.20
2018-12-18T04:36:39.328Z,58.20
2018-12-18T04:39:08.183Z,58.30
2018-12-18T04:41:37.008Z,58.20
2018-12-18T04:44:05.905Z,58.30
2018-12-18T04:46:34.787Z,58.20
2018-12-18T04:49:03.663Z,58.20
2018-12-18T04:51:32.565Z,58.40
2018-12-18T04:54:01.451Z,58.30
2018-12-18T04:56:32.273Z,58.20
2018-12-18T04:59:01.173Z,58.20
2018-12-18T05:01:30.043Z,58.30
2018-12-18T05:03:58.921Z,58.20
2018-12-18T05:06:27.765Z,58.30
2018-12-18T05:08:56.612Z,58.30
2018-12-18T05:11:25.483Z,58.90
2018-12-18T05:13:54.365Z,58.30
2018-12-18T05:16:23.237Z,58.20
2018-12-18T05:18:52.127Z,58.30
2018-12-18T05:21:21.001Z,58.30
2018-12-18T05:23:49.872Z,58.30
2018-12-18T05:26:18.712Z,58.30
2018-12-18T05:28:47.581Z,58.30
2018-12-18T05:31:16.464Z,58.30
2018-12-18T05:33:45.302Z,59.10
2018-12-18T05:36:14.157Z,58.20
2018-12-18T05:38:43.032Z,58.20
2018-12-18T05:41:11.895Z,58.30
2018-12-18T05:43:40.760Z,58.30
2018-12-18T05:46:09.651Z,58.30
2018-12-18T05:48:38.559Z,58.20
2018-12-18T05:51:07.427Z,58.10
2018-12-18T05:53:36.271Z,58.00
2018-12-18T05:56:05.149Z,57.90
2018-12-18T05:58:34.065Z,57.80
2018-12-18T06:01:03.008Z,57.80
2018-12-18T06:03:33.797Z,57.90
2018-12-18T06:06:02.646Z,57.90
2018-12-18T06:08:31.488Z,58.00
2018-12-18T06:11:00.353Z,58.00
2018-12-18T06:13:29.244Z,58.10
2018-12-18T06:15:58.098Z,58.70
2018-12-18T06:18:26.986Z,58.10
2018-12-18T06:20:55.827Z,58.20
2018-12-18T06:23:24.751Z,58.20
2018-12-18T06:25:53.609Z,58.30
2018-12-18T06:28:22.493Z,58.20
2018-12-18T06:30:51.394Z,58.40
2018-12-18T06:33:20.272Z,59.00
2018-12-18T06:35:49.196Z,58.30
2018-12-18T06:38:18.068Z,58.30
2018-12-18T06:40:46.948Z,58.40
2018-12-18T06:43:15.862Z,58.40
2018-12-18T06:45:44.807Z,58.50
2018-12-18T06:48:13.689Z,58.50
2018-12-18T06:50:42.601Z,58.40
2018-12-18T06:53:11.553Z,58.50
2018-12-18T06:55:40.455Z,58.50
2018-12-18T06:58:09.303Z,58.40
2018-12-18T07:00:38.205Z,58.40
2018-12-18T07:03:07.093Z,58.40
2018-12-18T07:05:36.038Z,58.50
2018-12-18T07:08:04.948Z,59.00
2018-12-18T07:10:33.787Z,58.60
2018-12-18T07:13:02.674Z,58.50
2018-12-18T07:15:32.527Z,58.50
2018-12-18T07:18:01.428Z,58.50
2018-12-18T07:20:30.315Z,58.60
2018-12-18T07:22:59.207Z,58.50
2018-12-18T07:25:28.108Z,58.60
2018-12-18T07:27:57.027Z,58.50
2018-12-18T07:30:25.873Z,58.60
2018-12-18T07:32:54.773Z,58.60
2018-12-18T07:35:23.664Z,58.70
2018-12-18T07:37:52.532Z,58.60
2018-12-18T07:40:21.392Z,58.50
2018-12-18T07:42:50.251Z,58.70
2018-12-18T07:45:19.087Z,58.50
2018-12-18T07:47:47.956Z,58.60
2018-12-18T07:50:16.801Z,58.80
2018-12-18T07:52:45.646Z,58.60
2018-12-18T07:55:16.483Z,58.50
2018-12-18T07:57:46.294Z,58.60
2018-12-18T08:00:15.135Z,58.60
2018-12-18T08:02:44.021Z,58.60
2018-12-18T08:05:12.891Z,58.70
2018-12-18T08:07:41.780Z,58.60
2018-12-18T08:10:10.629Z,58.70
2018-12-18T08:12:39.480Z,58.70
2018-12-18T08:15:08.359Z,58.70
2018-12-18T08:17:37.218Z,58.60
2018-12-18T08:20:06.131Z,58.70
2018-12-18T08:22:34.991Z,58.70
2018-12-18T08:25:03.943Z,58.80
2018-12-18T08:27:33.075Z,58.80
2018-12-18T08:30:01.938Z,58.90
2018-12-18T08:32:30.801Z,58.80
2018-12-18T08:34:59.693Z,58.80
2018-12-18T08:37:28.545Z,59.00
2018-12-18T08:39:57.420Z,58.80
2018-12-18T08:42:26.264Z,58.90
2018-12-18T08:44:55.255Z,58.90
2018-12-18T08:47:24.108Z,58.80
2018-12-18T08:49:52.963Z,58.90
2018-12-18T08:52:21.839Z,58.90
2018-12-18T08:54:50.690Z,58.90
2018-12-18T08:57:19.543Z,58.80
2018-12-18T08:59:48.392Z,58.80
2018-12-18T09:02:17.243Z,58.90
2018-12-18T09:04:46.106Z,58.80
2018-12-18T09:07:14.961Z,58.90
2018-12-18T09:09:43.828Z,59.10
2018-12-18T09:12:16.456Z,58.90
2018-12-18T09:15:07.833Z,58.90
2018-12-18T09:17:42.256Z,59.00
2018-12-18T09:20:11.123Z,58.90
2018-12-18T09:22:39.971Z,58.80
2018-12-18T09:25:08.822Z,58.90
2018-12-18T09:27:37.689Z,59.00
2018-12-18T09:30:09.473Z,58.90
2018-12-18T09:32:38.393Z,59.00
2018-12-18T09:35:09.208Z,58.90
2018-12-18T09:37:38.064Z,59.60
2018-12-18T09:40:10.189Z,59.00
2018-12-18T09:42:45.390Z,58.90
2018-12-18T09:45:14.238Z,59.00
2018-12-18T09:47:43.171Z,59.00
2018-12-18T09:50:12.021Z,59.10
2018-12-18T10:08:08.929Z,58.90
2018-12-18T10:10:37.792Z,59.30
2018-12-18T10:13:06.640Z,59.30
2018-12-18T10:15:35.514Z,59.30
2018-12-18T10:18:05.344Z,59.20
2018-12-18T10:20:34.216Z,59.10
2018-12-18T10:23:03.096Z,59.00
2018-12-18T10:25:31.940Z,59.00
2018-12-18T10:28:01.181Z,58.90
2018-12-18T10:30:30.063Z,59.00
2018-12-18T10:32:59.067Z,58.90
2018-12-18T10:35:27.931Z,58.90
2018-12-18T10:37:56.779Z,58.90
2018-12-18T10:40:25.645Z,58.90
2018-12-18T10:42:54.521Z,58.90
2018-12-18T10:45:23.392Z,58.80
2018-12-18T10:47:52.286Z,58.90
2018-12-18T10:50:21.146Z,58.90
2018-12-18T10:52:50.000Z,58.90
2018-12-18T10:55:18.860Z,58.80
2018-12-18T10:57:47.729Z,58.90
2018-12-18T11:00:22.208Z,58.90
2018-12-18T11:02:51.807Z,59.00
2018-12-18T11:05:21.427Z,58.90
2018-12-18T11:08:38.169Z,58.90
2018-12-18T11:11:07.071Z,58.90
2018-12-18T11:13:35.951Z,58.80
2018-12-18T11:16:04.813Z,58.90
2018-12-18T11:18:33.692Z,58.90
2018-12-18T11:21:02.561Z,58.90
2018-12-18T11:23:31.444Z,58.90
2018-12-18T11:26:00.330Z,58.90
2018-12-18T11:28:29.193Z,58.90
2018-12-18T11:30:58.067Z,58.90
2018-12-18T11:33:27.413Z,58.90
2018-12-18T11:35:56.347Z,58.90
2018-12-18T11:38:25.223Z,58.90
2018-12-18T11:40:54.113Z,59.00
2018-12-18T11:43:23.077Z,58.90
2018-12-18T11:45:51.937Z,58.90
2018-12-18T11:48:20.836Z,59.00
2018-12-18T11:50:49.720Z,58.90
2018-12-18T11:53:18.756Z,58.90
2018-12-18T11:55:47.611Z,59.00
2018-12-18T11:58:16.475Z,58.90
2018-12-18T12:00:45.370Z,58.80
2018-12-18T12:03:14.227Z,58.90
2018-12-18T12:05:45.086Z,59.20
2018-12-18T12:08:13.973Z,58.90
2018-12-18T12:10:42.861Z,59.00
2018-12-18T12:13:11.759Z,58.90
2018-12-18T12:15:40.628Z,58.90
2018-12-18T12:18:09.518Z,58.90
2018-12-18T12:20:38.411Z,58.80
2018-12-18T12:23:07.280Z,58.80
2018-12-18T12:25:36.173Z,58.90
2018-12-18T12:28:05.465Z,58.80
2018-12-18T12:30:35.701Z,58.80
2018-12-18T12:33:04.617Z,58.50
2018-12-18T12:35:33.507Z,58.90
2018-12-18T12:38:02.373Z,58.90
2018-12-18T12:40:31.261Z,58.90
2018-12-18T12:43:00.149Z,58.90
2018-12-18T12:45:29.908Z,58.90
2018-12-18T12:48:00.259Z,58.90
2018-12-18T12:50:29.141Z,58.90
2018-12-18T12:52:57.999Z,58.90
2018-12-18T12:55:26.893Z,59.00
2018-12-18T12:57:55.764Z,59.00
2018-12-18T13:00:24.629Z,58.90
2018-12-18T13:02:53.493Z,58.90
2018-12-18T13:05:22.390Z,58.90
2018-12-18T13:07:51.994Z,58.90
2018-12-18T13:10:21.546Z,58.90
2018-12-18T13:13:13.399Z,58.90
2018-12-18T13:15:42.305Z,58.90
2018-12-18T13:18:12.033Z,59.00
2018-12-18T13:20:41.097Z,58.90
2018-12-18T13:23:12.631Z,58.90
2018-12-18T13:25:42.283Z,58.90
2018-12-18T13:28:11.136Z,58.90
2018-12-18T13:30:40.004Z,58.90
2018-12-18T13:33:08.899Z,59.00
2018-12-18T13:35:37.797Z,58.90
2018-12-18T13:38:06.850Z,59.00
2018-12-18T13:40:35.750Z,58.90
2018-12-18T13:43:04.590Z,58.90
2018-12-18T13:45:33.497Z,58.90
2018-12-18T13:48:02.347Z,59.10
2018-12-18T13:50:31.201Z,58.90
2018-12-18T13:53:00.068Z,58.90
2018-12-18T13:55:28.908Z,58.90
2018-12-18T13:57:57.823Z,58.90
2018-12-18T14:00:26.709Z,58.90
2018-12-18T14:02:55.560Z,58.90
2018-12-18T14:05:24.411Z,58.90
2018-12-18T14:07:53.299Z,58.90
2018-12-18T14:10:22.187Z,59.00
2018-12-18T14:12:57.103Z,59.00
2018-12-18T14:15:26.091Z,58.90
2018-12-18T14:17:54.985Z,59.50
2018-12-18T14:20:23.857Z,58.80
2018-12-18T14:22:52.737Z,58.90
2018-12-18T14:25:21.588Z,58.90
2018-12-18T14:27:50.485Z,58.90
2018-12-18T14:30:19.333Z,58.80
2018-12-18T14:32:48.200Z,58.90
2018-12-18T14:35:17.068Z,58.90
2018-12-18T14:37:45.941Z,58.90
2018-12-18T14:40:14.827Z,58.90
2018-12-18T14:42:43.739Z,58.80
2018-12-18T14:45:12.603Z,58.90
2018-12-18T14:47:41.491Z,58.90
2018-12-18T14:50:10.371Z,58.90
2018-12-18T14:52:39.251Z,58.90
2018-12-18T14:55:08.129Z,58.90
2018-12-18T14:57:37.016Z,58.90
2018-12-18T15:00:06.384Z,59.00
2018-12-18T15:02:35.280Z,59.60
2018-12-18T15:05:04.240Z,59.00
2018-12-18T15:07:33.116Z,59.00
2018-12-18T15:10:01.995Z,59.70
2018-12-18T15:12:30.892Z,59.70
2018-12-18T15:14:59.778Z,59.00
2018-12-18T15:17:28.636Z,59.00
2018-12-18T15:19:58.449Z,59.10
2018-12-18T15:22:27.330Z,59.10
2018-12-18T15:24:58.163Z,59.10
2018-12-18T15:27:27.055Z,59.20
2018-12-18T15:29:55.934Z,59.20
2018-12-18T15:32:24.918Z,59.20
2018-12-18T15:34:53.803Z,59.20
2018-12-18T15:37:22.666Z,59.20
2018-12-18T15:39:51.556Z,59.10
2018-12-18T15:42:20.435Z,59.30
2018-12-18T15:44:49.367Z,59.20
2018-12-18T15:47:18.293Z,59.20
2018-12-18T15:49:47.163Z,59.30
2018-12-18T15:52:16.500Z,59.30
2018-12-18T15:54:45.418Z,59.30
2018-12-18T15:57:14.309Z,59.20
2018-12-18T15:59:43.208Z,59.20
2018-12-18T16:02:12.130Z,59.30
2018-12-18T16:04:41.060Z,59.20
2018-12-18T16:07:15.989Z,59.20
2018-12-18T16:09:41.693Z,59.30
2018-12-18T16:12:10.573Z,59.30
2018-12-18T16:14:39.429Z,59.30
2018-12-18T16:17:08.317Z,59.40
2018-12-18T16:19:37.279Z,59.50
2018-12-18T16:22:06.149Z,59.50
2018-12-18T16:24:35.010Z,59.50
2018-12-18T16:27:03.894Z,59.40
2018-12-18T16:30:04.159Z,59.40
2018-12-18T16:32:33.934Z,59.50
2018-12-18T16:35:03.815Z,59.60
2018-12-18T16:37:32.654Z,59.50
2018-12-18T16:40:01.545Z,59.60
2018-12-18T16:42:30.432Z,59.60
2018-12-18T16:44:59.316Z,59.60
2018-12-18T16:47:28.196Z,59.40
2018-12-18T16:49:57.164Z,59.50
2018-12-18T16:52:26.050Z,59.50
2018-12-18T16:54:54.932Z,59.50
2018-12-18T16:57:23.845Z,59.50
2018-12-18T16:59:52.783Z,59.40
2018-12-18T17:02:22.439Z,59.40
2018-12-18T17:04:51.368Z,59.50
2018-12-18T17:07:20.201Z,59.40
2018-12-18T17:09:49.149Z,59.40
2018-12-18T17:12:17.988Z,59.50
2018-12-18T17:14:46.845Z,59.40
2018-12-18T17:17:15.780Z,59.40
2018-12-18T17:19:44.644Z,59.40
2018-12-18T17:22:13.542Z,59.40
2018-12-18T17:24:42.416Z,59.30
2018-12-18T17:27:11.274Z,59.40
2018-12-18T17:29:40.212Z,59.40
2018-12-18T17:32:09.095Z,59.40
2018-12-18T17:34:37.957Z,59.30
2018-12-18T17:37:06.835Z,59.40
2018-12-18T17:39:36.201Z,59.40
2018-12-18T17:42:05.122Z,59.30
2018-12-18T17:44:33.997Z,59.40
2018-12-18T17:47:03.004Z,59.30
2018-12-18T17:49:31.876Z,59.40
2018-12-18T17:52:01.307Z,59.30
2018-12-18T17:54:30.160Z,59.40
2018-12-18T17:56:59.066Z,59.30
2018-12-18T17:59:27.959Z,59.30
2018-12-18T18:01:56.845Z,59.30
2018-12-18T18:04:25.731Z,59.30
2018-12-18T18:06:54.687Z,59.30
2018-12-18T18:09:23.581Z,59.20
2018-12-18T18:11:52.494Z,59.30
2018-12-18T18:14:21.408Z,59.20
2018-12-18T18:16:50.327Z,59.30
2018-12-18T18:19:19.212Z,59.30
2018-12-18T18:21:48.104Z,59.20
2018-12-18T18:24:17.024Z,59.20
2018-12-18T18:26:45.915Z,59.20
2018-12-18T18:29:14.817Z,59.20
2018-12-18T18:31:43.695Z,59.20
2018-12-18T18:34:12.674Z,59.20
2018-12-18T18:36:41.518Z,59.10
2018-12-18T18:39:10.431Z,59.10
2018-12-18T18:41:39.296Z,59.30
2018-12-18T18:44:08.168Z,59.10
2018-12-18T18:46:37.052Z,59.20
2018-12-18T18:49:05.960Z,59.10
2018-12-18T18:51:34.822Z,59.10
2018-12-18T18:54:03.693Z,59.10
2018-12-18T18:56:32.583Z,59.60
2018-12-18T18:59:01.475Z,59.10
2018-12-18T19:01:30.345Z,59.10
2018-12-18T19:03:59.579Z,59.10
2018-12-18T19:06:29.157Z,59.10
2018-12-18T19:08:58.068Z,59.10
2018-12-18T19:11:26.966Z,59.00
2018-12-18T19:13:55.830Z,59.00
2018-12-18T19:16:24.710Z,59.00
2018-12-18T19:18:54.228Z,59.00
2018-12-18T19:21:23.114Z,59.00
2018-12-18T19:23:51.999Z,59.00
2018-12-18T19:26:20.909Z,59.00
2018-12-18T19:28:50.317Z,58.90
2018-12-18T19:31:19.997Z,58.90
2018-12-18T19:33:48.877Z,58.90
2018-12-18T19:36:17.771Z,59.00
2018-12-18T19:38:46.764Z,58.90
2018-12-18T19:41:15.655Z,59.00
2018-12-18T19:43:45.891Z,58.90
2018-12-18T19:46:14.966Z,58.90
2018-12-18T19:48:44.065Z,58.90
2018-12-18T19:51:13.022Z,58.90
2018-12-18T19:53:41.916Z,58.90
2018-12-18T19:56:10.804Z,58.80
2018-12-18T19:58:39.699Z,58.90
2018-12-18T20:01:08.564Z,58.90
2018-12-18T20:03:37.445Z,58.90
2018-12-18T20:06:06.304Z,58.90
2018-12-18T20:08:35.198Z,58.90
2018-12-18T20:11:04.108Z,58.90
2018-12-18T20:13:33.015Z,58.90
2018-12-18T20:16:02.893Z,58.80
2018-12-18T20:18:32.890Z,58.80
2018-12-18T20:21:01.810Z,58.90
2018-12-18T20:23:30.703Z,59.00
2018-12-18T20:26:03.261Z,58.90
2018-12-18T20:28:32.164Z,58.90
2018-12-18T20:31:01.039Z,58.90
2018-12-18T20:33:29.923Z,59.50
2018-12-18T20:35:59.773Z,58.90
2018-12-18T20:38:28.696Z,58.90
2018-12-18T20:40:57.577Z,58.80
2018-12-18T20:43:26.715Z,58.80
2018-12-18T20:45:55.605Z,58.80
2018-12-18T20:48:24.508Z,58.60
2018-12-18T20:50:53.388Z,58.50
2018-12-18T20:53:22.260Z,58.40
2018-12-18T20:55:51.818Z,58.30
2018-12-18T20:58:20.804Z,58.20
2018-12-18T21:00:49.667Z,58.10
2018-12-18T21:03:18.543Z,58.20
2018-12-18T21:05:47.418Z,58.30
2018-12-18T21:08:16.301Z,58.40
2018-12-18T21:10:45.182Z,58.40
2018-12-18T21:13:19.483Z,58.40
2018-12-18T21:15:48.376Z,58.40
2018-12-18T21:18:17.467Z,58.50
2018-12-18T21:20:46.335Z,58.50
2018-12-18T21:23:15.219Z,58.50
2018-12-18T21:25:44.942Z,58.50
2018-12-18T21:28:13.784Z,58.50
2018-12-18T21:30:42.678Z,58.50
2018-12-18T21:33:11.570Z,58.60
2018-12-18T21:35:40.456Z,58.60
2018-12-18T21:38:09.332Z,58.60
2018-12-18T21:40:39.014Z,58.50
2018-12-18T21:43:08.061Z,58.60
2018-12-18T21:45:36.969Z,58.50
2018-12-18T21:48:05.845Z,58.50
2018-12-18T21:50:34.765Z,58.50
2018-12-18T21:53:03.632Z,58.50
2018-12-18T21:55:32.514Z,58.80
2018-12-18T21:58:01.398Z,58.50
2018-12-18T22:00:32.008Z,58.60
2018-12-18T22:03:00.920Z,58.60
2018-12-18T22:05:29.814Z,58.50
2018-12-18T22:07:58.716Z,58.50
2018-12-18T22:10:27.592Z,59.10
2018-12-18T22:12:56.467Z,58.50
2018-12-18T22:15:25.581Z,58.60
2018-12-18T22:17:54.514Z,58.50
2018-12-18T22:20:23.421Z,58.50
2018-12-18T22:22:52.296Z,58.60
2018-12-18T22:25:21.183Z,58.50
2018-12-18T22:27:50.569Z,58.50
2018-12-18T22:30:19.656Z,58.50
2018-12-18T22:32:48.541Z,58.50
2018-12-18T22:35:17.434Z,58.50
2018-12-18T22:37:46.329Z,58.50
2018-12-18T22:40:15.246Z,58.50
2018-12-18T22:42:44.128Z,58.50
2018-12-18T22:45:13.017Z,58.50
2018-12-18T22:47:41.896Z,59.00
2018-12-18T22:50:10.770Z,58.50
2018-12-18T22:52:39.749Z,58.50
2018-12-18T22:55:08.624Z,58.50
2018-12-18T22:57:44.868Z,58.50
2018-12-18T23:00:26.558Z,58.50
2018-12-18T23:03:07.831Z,58.50
2018-12-18T23:05:45.105Z,58.60
2018-12-18T23:08:20.533Z,58.50
2018-12-18T23:10:58.087Z,58.50
2018-12-18T23:13:34.968Z,58.60
2018-12-18T23:16:12.463Z,58.50
2018-12-18T23:18:50.887Z,58.50
2018-12-18T23:21:28.038Z,58.30
2018-12-18T23:24:05.036Z,58.20
2018-12-18T23:26:43.216Z,58.10
2018-12-18T23:29:22.020Z,58.00
2018-12-18T23:31:58.328Z,58.00
2018-12-18T23:34:34.471Z,58.00
2018-12-18T23:37:03.772Z,58.10
2018-12-18T23:39:32.673Z,58.20
2018-12-18T23:42:01.757Z,58.20
2018-12-18T23:44:30.720Z,58.20
2018-12-18T23:46:59.600Z,58.20
2018-12-18T23:49:28.461Z,58.20
2018-12-18T23:51:57.536Z,58.30
2018-12-18T23:54:26.394Z,58.30
2018-12-18T23:56:55.276Z,58.30
2018-12-18T23:59:24.151Z,58.30
